sensor_id;sensor_type;location;lat;lon;timestamp;pressure;altitude;pressure_sealevel;temperature;humidity
1652;BME280;823;49.028;8.454;2022-12-07T00:04:54;100621.34;;;8.47;59.65
1652;BME280;823;49.028;8.454;2022-12-07T00:09:54;100613.81;;;8.35;60.13
1652;BME280;823;49.028;8.454;2022-12-07T00:14:54;100615.38;;;8.42;60.00
1652;BME280;823;49.028;8.454;2022-12-07T00:19:55;100605.09;;;8.41;59.88
1652;BME280;823;49.028;8.454;2022-12-07T00:24:55;100614.50;;;8.45;60.03
1652;BME280;823;49.028;8.454;2022-12-07T00:29:55;100604.28;;;8.39;60.00
1652;BME280;823;49.028;8.454;2022-12-07T00:34:55;100614.53;;;8.40;59.99
1652;BME280;823;49.028;8.454;2022-12-07T00:39:56;100612.91;;;8.36;60.17
1652;BME280;823;49.028;8.454;2022-12-07T00:44:56;100608.72;;;8.30;60.34
1652;BME280;823;49.028;8.454;2022-12-07T00:49:57;100607.88;;;8.31;60.34
1652;BME280;823;49.028;8.454;2022-12-07T00:54:57;100607.09;;;8.26;60.52
1652;BME280;823;49.028;8.454;2022-12-07T00:59:57;100613.22;;;8.21;60.60
1652;BME280;823;49.028;8.454;2022-12-07T01:04:58;100610.56;;;8.25;60.49
1652;BME280;823;49.028;8.454;2022-12-07T01:09:58;100602.88;;;8.22;60.31
1652;BME280;823;49.028;8.454;2022-12-07T01:14:58;100602.97;;;8.17;60.41
1652;BME280;823;49.028;8.454;2022-12-07T01:19:59;100601.38;;;8.12;60.74
1652;BME280;823;49.028;8.454;2022-12-07T01:24:59;100596.41;;;8.02;61.08
1652;BME280;823;49.028;8.454;2022-12-07T01:30:00;100603.19;;;8.07;60.82
1652;BME280;823;49.028;8.454;2022-12-07T01:35:00;100611.91;;;7.99;61.00
1652;BME280;823;49.028;8.454;2022-12-07T01:40:01;100607.69;;;7.95;61.14
1652;BME280;823;49.028;8.454;2022-12-07T01:50:36;100599.22;;;7.89;61.12
1652;BME280;823;49.028;8.454;2022-12-07T01:55:40;100602.84;;;7.80;61.29
1652;BME280;823;49.028;8.454;2022-12-07T02:00:42;100592.66;;;7.72;61.32
1652;BME280;823;49.028;8.454;2022-12-07T02:05:43;100611.59;;;7.70;61.57
1652;BME280;823;49.028;8.454;2022-12-07T02:10:43;100600.28;;;7.78;61.44
1652;BME280;823;49.028;8.454;2022-12-07T02:26:36;100606.19;;;7.83;61.44
1652;BME280;823;49.028;8.454;2022-12-07T02:32:14;100596.63;;;7.90;61.45
1652;BME280;823;49.028;8.454;2022-12-07T02:37:39;100589.00;;;7.86;61.73
1652;BME280;823;49.028;8.454;2022-12-07T02:42:48;100602.31;;;7.61;62.57
1652;BME280;823;49.028;8.454;2022-12-07T02:47:51;100589.22;;;7.73;62.31
1652;BME280;823;49.028;8.454;2022-12-07T02:52:53;100584.91;;;7.74;62.24
1652;BME280;823;49.028;8.454;2022-12-07T03:03:10;100570.13;;;7.85;61.81
1652;BME280;823;49.028;8.454;2022-12-07T03:08:35;100572.94;;;7.71;62.15
1652;BME280;823;49.028;8.454;2022-12-07T03:18:58;100548.69;;;7.83;61.75
1652;BME280;823;49.028;8.454;2022-12-07T03:24:04;100540.19;;;7.78;62.03
1652;BME280;823;49.028;8.454;2022-12-07T03:29:16;100541.13;;;7.74;62.03
1652;BME280;823;49.028;8.454;2022-12-07T03:34:32;100555.09;;;7.62;62.29
1652;BME280;823;49.028;8.454;2022-12-07T03:39:41;100562.88;;;7.59;62.08
1652;BME280;823;49.028;8.454;2022-12-07T03:44:43;100568.28;;;7.43;61.84
1652;BME280;823;49.028;8.454;2022-12-07T03:49:53;100574.22;;;7.47;61.59
1652;BME280;823;49.028;8.454;2022-12-07T03:55:28;100569.16;;;7.44;61.92
1652;BME280;823;49.028;8.454;2022-12-07T04:00:30;100569.88;;;7.49;61.55
1652;BME280;823;49.028;8.454;2022-12-07T04:05:31;100568.22;;;7.48;61.68
1652;BME280;823;49.028;8.454;2022-12-07T04:10:31;100568.28;;;7.45;61.75
1652;BME280;823;49.028;8.454;2022-12-07T04:15:32;100560.34;;;7.56;61.32
1652;BME280;823;49.028;8.454;2022-12-07T04:20:32;100561.50;;;7.38;62.12
1652;BME280;823;49.028;8.454;2022-12-07T04:25:32;100550.16;;;7.49;61.73
1652;BME280;823;49.028;8.454;2022-12-07T04:30:33;100551.78;;;7.55;61.70
1652;BME280;823;49.028;8.454;2022-12-07T04:35:33;100535.59;;;7.48;61.75
1652;BME280;823;49.028;8.454;2022-12-07T04:40:34;100545.13;;;7.45;61.85
1652;BME280;823;49.028;8.454;2022-12-07T04:45:34;100553.75;;;7.39;62.27
1652;BME280;823;49.028;8.454;2022-12-07T04:50:35;100543.41;;;7.44;61.82
1652;BME280;823;49.028;8.454;2022-12-07T04:55:38;100550.00;;;7.57;61.43
1652;BME280;823;49.028;8.454;2022-12-07T05:00:38;100549.31;;;7.49;61.63
1652;BME280;823;49.028;8.454;2022-12-07T05:05:41;100547.63;;;7.48;61.55
1652;BME280;823;49.028;8.454;2022-12-07T05:10:41;100543.06;;;7.62;61.41
1652;BME280;823;49.028;8.454;2022-12-07T05:15:42;100552.38;;;7.70;60.89
1652;BME280;823;49.028;8.454;2022-12-07T05:20:44;100554.34;;;7.55;61.45
1652;BME280;823;49.028;8.454;2022-12-07T05:25:44;100548.25;;;7.61;60.96
1652;BME280;823;49.028;8.454;2022-12-07T05:30:45;100548.38;;;7.55;61.12
1652;BME280;823;49.028;8.454;2022-12-07T05:35:45;100552.66;;;7.54;60.98
1652;BME280;823;49.028;8.454;2022-12-07T05:40:46;100551.81;;;7.54;60.95
1652;BME280;823;49.028;8.454;2022-12-07T05:45:46;100554.19;;;7.64;60.62
1652;BME280;823;49.028;8.454;2022-12-07T05:50:50;100546.44;;;7.66;60.00
1652;BME280;823;49.028;8.454;2022-12-07T05:55:51;100541.38;;;7.60;60.42
1652;BME280;823;49.028;8.454;2022-12-07T06:00:54;100545.63;;;7.62;60.27
1652;BME280;823;49.028;8.454;2022-12-07T06:05:54;100545.91;;;7.47;60.59
1652;BME280;823;49.028;8.454;2022-12-07T06:10:55;100550.91;;;7.56;60.36
1652;BME280;823;49.028;8.454;2022-12-07T06:16:15;100551.75;;;7.57;59.81
1652;BME280;823;49.028;8.454;2022-12-07T06:21:15;100545.09;;;7.46;60.49
1652;BME280;823;49.028;8.454;2022-12-07T06:26:16;100546.72;;;7.49;60.33
1652;BME280;823;49.028;8.454;2022-12-07T06:31:16;100549.56;;;7.33;60.58
1652;BME280;823;49.028;8.454;2022-12-07T06:36:16;100549.72;;;7.26;60.88
1652;BME280;823;49.028;8.454;2022-12-07T06:41:17;100555.38;;;7.46;60.11
1652;BME280;823;49.028;8.454;2022-12-07T06:46:17;100558.31;;;7.25;60.42
1652;BME280;823;49.028;8.454;2022-12-07T06:51:18;100547.16;;;7.26;59.98
1652;BME280;823;49.028;8.454;2022-12-07T06:56:18;100556.47;;;7.31;60.04
1652;BME280;823;49.028;8.454;2022-12-07T07:01:19;100547.94;;;7.29;60.09
1652;BME280;823;49.028;8.454;2022-12-07T07:06:19;100559.84;;;7.37;60.04
1652;BME280;823;49.028;8.454;2022-12-07T07:11:20;100550.75;;;7.14;60.40
1652;BME280;823;49.028;8.454;2022-12-07T07:16:20;100553.06;;;7.29;60.32
1652;BME280;823;49.028;8.454;2022-12-07T07:21:20;100548.50;;;7.47;59.56
1652;BME280;823;49.028;8.454;2022-12-07T07:26:21;100559.13;;;7.27;60.25
1652;BME280;823;49.028;8.454;2022-12-07T07:31:21;100559.13;;;7.28;60.17
1652;BME280;823;49.028;8.454;2022-12-07T07:36:21;100565.78;;;7.39;59.80
1652;BME280;823;49.028;8.454;2022-12-07T07:41:22;100568.31;;;7.42;59.28
1652;BME280;823;49.028;8.454;2022-12-07T07:46:22;100568.31;;;7.42;59.64
1652;BME280;823;49.028;8.454;2022-12-07T07:51:22;100577.03;;;7.33;59.64
1652;BME280;823;49.028;8.454;2022-12-07T07:56:23;100570.03;;;7.41;59.15
1652;BME280;823;49.028;8.454;2022-12-07T08:01:23;100575.47;;;7.24;59.55
1652;BME280;823;49.028;8.454;2022-12-07T08:06:23;100580.06;;;7.05;59.81
1652;BME280;823;49.028;8.454;2022-12-07T08:11:24;100581.16;;;7.42;59.06
1652;BME280;823;49.028;8.454;2022-12-07T08:16:24;100588.94;;;7.39;58.96
1652;BME280;823;49.028;8.454;2022-12-07T08:21:25;100594.88;;;7.44;58.81
1652;BME280;823;49.028;8.454;2022-12-07T08:26:25;100592.41;;;7.36;58.51
1652;BME280;823;49.028;8.454;2022-12-07T08:31:25;100599.34;;;7.32;58.41
1652;BME280;823;49.028;8.454;2022-12-07T08:36:27;100588.88;;;7.45;57.98
1652;BME280;823;49.028;8.454;2022-12-07T08:41:28;100585.31;;;7.52;57.61
1652;BME280;823;49.028;8.454;2022-12-07T08:51:33;100599.81;;;7.56;57.81
1652;BME280;823;49.028;8.454;2022-12-07T08:56:34;100606.63;;;7.60;57.55
1652;BME280;823;49.028;8.454;2022-12-07T09:01:35;100613.31;;;7.69;57.41
1652;BME280;823;49.028;8.454;2022-12-07T09:06:35;100606.69;;;7.54;57.41
1652;BME280;823;49.028;8.454;2022-12-07T09:11:35;100612.78;;;7.50;57.63
1652;BME280;823;49.028;8.454;2022-12-07T09:16:36;100598.06;;;7.58;57.56
1652;BME280;823;49.028;8.454;2022-12-07T09:21:36;100600.09;;;7.89;57.30
1652;BME280;823;49.028;8.454;2022-12-07T09:26:36;100605.19;;;7.92;56.99
1652;BME280;823;49.028;8.454;2022-12-07T09:31:40;100608.41;;;8.04;56.68
1652;BME280;823;49.028;8.454;2022-12-07T09:36:40;100602.50;;;7.97;56.48
1652;BME280;823;49.028;8.454;2022-12-07T09:41:43;100602.31;;;8.08;56.12
1652;BME280;823;49.028;8.454;2022-12-07T09:46:44;100606.44;;;8.16;55.57
1652;BME280;823;49.028;8.454;2022-12-07T09:51:46;100599.56;;;8.17;55.94
1652;BME280;823;49.028;8.454;2022-12-07T09:56:46;100595.91;;;8.27;55.52
1652;BME280;823;49.028;8.454;2022-12-07T10:01:51;100597.13;;;8.55;54.89
1652;BME280;823;49.028;8.454;2022-12-07T10:06:51;100592.06;;;8.48;54.57
1652;BME280;823;49.028;8.454;2022-12-07T10:12:06;100589.59;;;8.83;53.56
1652;BME280;823;49.028;8.454;2022-12-07T10:18:00;100581.97;;;8.78;53.45
1652;BME280;823;49.028;8.454;2022-12-07T10:28:15;100577.81;;;8.73;52.31
1652;BME280;823;49.028;8.454;2022-12-07T10:33:38;100577.91;;;8.68;52.88
1652;BME280;823;49.028;8.454;2022-12-07T10:38:45;100574.81;;;8.52;53.37
1652;BME280;823;49.028;8.454;2022-12-07T10:43:48;100568.06;;;8.46;53.61
1652;BME280;823;49.028;8.454;2022-12-07T10:49:02;100566.19;;;8.55;53.69
1652;BME280;823;49.028;8.454;2022-12-07T10:54:15;100555.91;;;8.53;53.57
1652;BME280;823;49.028;8.454;2022-12-07T11:05:06;100544.41;;;8.26;54.27
1652;BME280;823;49.028;8.454;2022-12-07T11:10:24;100541.94;;;8.19;54.31
1652;BME280;823;49.028;8.454;2022-12-07T11:36:54;100521.78;;;8.39;54.65
1652;BME280;823;49.028;8.454;2022-12-07T11:42:16;100523.34;;;8.49;54.46
1652;BME280;823;49.028;8.454;2022-12-07T11:47:30;100516.72;;;8.35;54.78
1652;BME280;823;49.028;8.454;2022-12-07T11:58:01;100496.25;;;8.29;55.66
1652;BME280;823;49.028;8.454;2022-12-07T12:03:11;100496.66;;;8.50;54.86
1652;BME280;823;49.028;8.454;2022-12-07T12:08:19;100491.19;;;8.64;54.87
1652;BME280;823;49.028;8.454;2022-12-07T12:28:51;100471.56;;;8.58;55.32
1652;BME280;823;49.028;8.454;2022-12-07T12:33:55;100474.28;;;8.88;55.18
1652;BME280;823;49.028;8.454;2022-12-07T12:43:59;100463.13;;;8.88;54.81
1652;BME280;823;49.028;8.454;2022-12-07T13:04:39;100453.44;;;8.97;54.79
1652;BME280;823;49.028;8.454;2022-12-07T13:09:42;100445.09;;;8.88;55.02
1652;BME280;823;49.028;8.454;2022-12-07T13:14:56;100445.09;;;8.86;54.93
1652;BME280;823;49.028;8.454;2022-12-07T13:20:04;100433.72;;;8.95;55.31
1652;BME280;823;49.028;8.454;2022-12-07T13:30:21;100435.88;;;8.77;55.67
1652;BME280;823;49.028;8.454;2022-12-07T13:35:32;100430.91;;;8.68;55.84
1652;BME280;823;49.028;8.454;2022-12-07T13:40:33;100427.22;;;8.80;55.72
1652;BME280;823;49.028;8.454;2022-12-07T13:45:33;100421.09;;;8.84;55.09
1652;BME280;823;49.028;8.454;2022-12-07T13:50:57;100415.41;;;8.71;55.81
1652;BME280;823;49.028;8.454;2022-12-07T13:55:59;100413.81;;;8.98;55.23
1652;BME280;823;49.028;8.454;2022-12-07T14:01:00;100426.16;;;8.87;55.60
1652;BME280;823;49.028;8.454;2022-12-07T14:06:24;100414.03;;;8.91;55.21
1652;BME280;823;49.028;8.454;2022-12-07T14:11:29;100414.88;;;8.91;55.22
1652;BME280;823;49.028;8.454;2022-12-07T14:16:32;100420.22;;;8.85;55.50
1652;BME280;823;49.028;8.454;2022-12-07T14:21:34;100425.41;;;8.82;55.34
1652;BME280;823;49.028;8.454;2022-12-07T14:26:34;100421.78;;;8.91;55.28
1652;BME280;823;49.028;8.454;2022-12-07T14:31:35;100418.94;;;8.67;55.35
1652;BME280;823;49.028;8.454;2022-12-07T14:36:35;100422.44;;;8.64;55.27
1652;BME280;823;49.028;8.454;2022-12-07T14:41:35;100420.94;;;8.54;55.48
1652;BME280;823;49.028;8.454;2022-12-07T14:46:51;100419.72;;;8.69;55.13
1652;BME280;823;49.028;8.454;2022-12-07T14:51:52;100426.94;;;8.56;55.33
1652;BME280;823;49.028;8.454;2022-12-07T14:56:54;100422.53;;;8.60;54.91
1652;BME280;823;49.028;8.454;2022-12-07T15:01:54;100424.94;;;8.67;54.71
1652;BME280;823;49.028;8.454;2022-12-07T15:07:00;100415.13;;;8.46;55.33
1652;BME280;823;49.028;8.454;2022-12-07T15:12:00;100418.88;;;8.32;55.25
1652;BME280;823;49.028;8.454;2022-12-07T15:17:00;100420.28;;;8.44;55.18
1652;BME280;823;49.028;8.454;2022-12-07T15:22:01;100413.47;;;8.42;55.19
1652;BME280;823;49.028;8.454;2022-12-07T15:27:01;100416.06;;;8.42;55.17
1652;BME280;823;49.028;8.454;2022-12-07T15:32:02;100417.66;;;8.49;55.01
1652;BME280;823;49.028;8.454;2022-12-07T15:37:03;100404.16;;;8.36;55.44
1652;BME280;823;49.028;8.454;2022-12-07T15:42:03;100398.88;;;8.42;55.15
1652;BME280;823;49.028;8.454;2022-12-07T15:47:04;100395.66;;;8.32;55.44
1652;BME280;823;49.028;8.454;2022-12-07T15:52:05;100394.97;;;8.26;55.74
1652;BME280;823;49.028;8.454;2022-12-07T15:57:05;100396.63;;;8.28;55.37
1652;BME280;823;49.028;8.454;2022-12-07T16:02:05;100381.41;;;8.17;55.98
1652;BME280;823;49.028;8.454;2022-12-07T16:07:06;100373.88;;;8.08;56.54
1652;BME280;823;49.028;8.454;2022-12-07T16:12:06;100381.81;;;8.00;56.62
1652;BME280;823;49.028;8.454;2022-12-07T16:17:08;100378.63;;;7.89;57.11
1652;BME280;823;49.028;8.454;2022-12-07T16:22:08;100369.91;;;7.93;56.87
1652;BME280;823;49.028;8.454;2022-12-07T16:27:09;100367.72;;;7.76;57.09
1652;BME280;823;49.028;8.454;2022-12-07T16:32:09;100369.50;;;7.74;57.29
1652;BME280;823;49.028;8.454;2022-12-07T16:37:09;100373.56;;;7.84;56.95
1652;BME280;823;49.028;8.454;2022-12-07T16:42:10;100370.16;;;7.84;57.20
1652;BME280;823;49.028;8.454;2022-12-07T16:47:10;100379.69;;;7.79;57.62
1652;BME280;823;49.028;8.454;2022-12-07T16:52:10;100364.03;;;7.88;57.00
1652;BME280;823;49.028;8.454;2022-12-07T16:57:11;100358.22;;;7.80;57.20
1652;BME280;823;49.028;8.454;2022-12-07T17:02:11;100351.84;;;7.96;56.73
1652;BME280;823;49.028;8.454;2022-12-07T17:07:12;100345.88;;;7.94;57.08
1652;BME280;823;49.028;8.454;2022-12-07T17:12:12;100344.41;;;7.84;57.46
1652;BME280;823;49.028;8.454;2022-12-07T17:17:13;100343.44;;;7.88;57.10
1652;BME280;823;49.028;8.454;2022-12-07T17:22:13;100335.50;;;7.97;56.96
1652;BME280;823;49.028;8.454;2022-12-07T17:27:13;100332.13;;;7.95;57.16
1652;BME280;823;49.028;8.454;2022-12-07T17:32:14;100338.22;;;7.91;57.06
1652;BME280;823;49.028;8.454;2022-12-07T17:37:14;100333.00;;;7.94;57.12
1652;BME280;823;49.028;8.454;2022-12-07T17:42:14;100327.13;;;7.89;56.96
1652;BME280;823;49.028;8.454;2022-12-07T17:47:35;100324.31;;;7.98;56.72
1652;BME280;823;49.028;8.454;2022-12-07T17:52:39;100320.03;;;7.97;56.82
1652;BME280;823;49.028;8.454;2022-12-07T17:57:58;100313.94;;;8.03;56.51
1652;BME280;823;49.028;8.454;2022-12-07T18:02:58;100319.91;;;8.04;56.62
1652;BME280;823;49.028;8.454;2022-12-07T18:07:58;100309.53;;;8.07;56.54
1652;BME280;823;49.028;8.454;2022-12-07T18:12:59;100302.91;;;7.96;56.28
1652;BME280;823;49.028;8.454;2022-12-07T18:18:17;100315.09;;;7.90;56.89
1652;BME280;823;49.028;8.454;2022-12-07T18:23:18;100309.06;;;7.91;56.56
1652;BME280;823;49.028;8.454;2022-12-07T18:28:19;100310.72;;;7.92;56.24
1652;BME280;823;49.028;8.454;2022-12-07T18:33:20;100307.47;;;7.85;56.45
1652;BME280;823;49.028;8.454;2022-12-07T18:38:20;100300.69;;;7.81;56.73
1652;BME280;823;49.028;8.454;2022-12-07T18:43:21;100306.72;;;7.80;56.91
1652;BME280;823;49.028;8.454;2022-12-07T18:48:24;100298.44;;;7.67;57.32
1652;BME280;823;49.028;8.454;2022-12-07T18:53:24;100303.56;;;7.69;57.19
1652;BME280;823;49.028;8.454;2022-12-07T18:58:24;100295.91;;;7.64;57.52
1652;BME280;823;49.028;8.454;2022-12-07T19:03:25;100301.25;;;7.56;57.70
1652;BME280;823;49.028;8.454;2022-12-07T19:08:26;100298.78;;;7.50;58.01
1652;BME280;823;49.028;8.454;2022-12-07T19:13:26;100307.50;;;7.44;58.23
1652;BME280;823;49.028;8.454;2022-12-07T19:18:26;100306.69;;;7.42;58.05
1652;BME280;823;49.028;8.454;2022-12-07T19:23:27;100311.09;;;7.37;58.11
1652;BME280;823;49.028;8.454;2022-12-07T19:28:27;100306.06;;;7.31;58.12
1652;BME280;823;49.028;8.454;2022-12-07T19:33:27;100300.34;;;7.16;58.46
1652;BME280;823;49.028;8.454;2022-12-07T19:38:30;100299.06;;;6.95;59.34
1652;BME280;823;49.028;8.454;2022-12-07T19:43:32;100292.22;;;6.94;59.30
1652;BME280;823;49.028;8.454;2022-12-07T19:48:32;100293.75;;;7.03;58.96
1652;BME280;823;49.028;8.454;2022-12-07T19:53:32;100287.91;;;6.96;58.95
1652;BME280;823;49.028;8.454;2022-12-07T19:58:33;100291.59;;;6.83;59.35
1652;BME280;823;49.028;8.454;2022-12-07T20:03:33;100282.28;;;6.77;59.33
1652;BME280;823;49.028;8.454;2022-12-07T20:08:34;100272.81;;;6.78;59.30
1652;BME280;823;49.028;8.454;2022-12-07T20:13:34;100284.19;;;6.66;59.82
1652;BME280;823;49.028;8.454;2022-12-07T20:18:34;100273.09;;;6.64;59.92
1652;BME280;823;49.028;8.454;2022-12-07T20:23:34;100269.63;;;6.67;59.96
1652;BME280;823;49.028;8.454;2022-12-07T20:28:35;100269.63;;;6.67;59.83
1652;BME280;823;49.028;8.454;2022-12-07T20:33:35;100268.78;;;6.64;60.17
1652;BME280;823;49.028;8.454;2022-12-07T20:38:36;100269.56;;;6.70;59.21
1652;BME280;823;49.028;8.454;2022-12-07T20:43:36;100263.66;;;6.66;59.48
1652;BME280;823;49.028;8.454;2022-12-07T20:48:36;100254.19;;;6.67;59.33
1652;BME280;823;49.028;8.454;2022-12-07T20:53:37;100257.69;;;6.62;58.78
1652;BME280;823;49.028;8.454;2022-12-07T20:58:37;100250.97;;;6.57;58.86
1652;BME280;823;49.028;8.454;2022-12-07T21:03:37;100246.84;;;6.48;59.01
1652;BME280;823;49.028;8.454;2022-12-07T21:08:37;100236.72;;;6.39;59.32
1652;BME280;823;49.028;8.454;2022-12-07T21:13:39;100242.84;;;6.32;59.39
1652;BME280;823;49.028;8.454;2022-12-07T21:18:39;100248.94;;;6.24;59.08
1652;BME280;823;49.028;8.454;2022-12-07T21:23:40;100256.00;;;6.13;59.63
1652;BME280;823;49.028;8.454;2022-12-07T21:28:40;100256.16;;;6.05;59.78
1652;BME280;823;49.028;8.454;2022-12-07T21:33:42;100258.75;;;6.01;59.65
1652;BME280;823;49.028;8.454;2022-12-07T21:38:46;100253.78;;;5.88;59.76
1652;BME280;823;49.028;8.454;2022-12-07T21:43:46;100239.44;;;5.78;59.85
1652;BME280;823;49.028;8.454;2022-12-07T21:48:52;100230.91;;;5.74;60.02
1652;BME280;823;49.028;8.454;2022-12-07T21:53:54;100237.00;;;5.69;60.05
1652;BME280;823;49.028;8.454;2022-12-07T21:59:01;100225.97;;;5.63;60.19
1652;BME280;823;49.028;8.454;2022-12-07T22:04:06;100226.03;;;5.59;60.38
1652;BME280;823;49.028;8.454;2022-12-07T22:09:07;100224.41;;;5.52;60.62
1652;BME280;823;49.028;8.454;2022-12-07T22:14:08;100233.06;;;5.46;60.75
1652;BME280;823;49.028;8.454;2022-12-07T22:19:27;100231.44;;;5.40;60.66
1652;BME280;823;49.028;8.454;2022-12-07T22:24:27;100231.47;;;5.36;61.00
1652;BME280;823;49.028;8.454;2022-12-07T22:29:27;100221.22;;;5.37;60.98
1652;BME280;823;49.028;8.454;2022-12-07T22:34:28;100219.47;;;5.39;61.18
1652;BME280;823;49.028;8.454;2022-12-07T22:39:28;100210.03;;;5.40;61.36
1652;BME280;823;49.028;8.454;2022-12-07T22:44:29;100205.84;;;5.37;62.05
1652;BME280;823;49.028;8.454;2022-12-07T22:49:29;100205.81;;;5.39;62.31
1652;BME280;823;49.028;8.454;2022-12-07T22:54:29;100204.91;;;5.41;62.02
1652;BME280;823;49.028;8.454;2022-12-07T22:59:29;100206.63;;;5.41;62.16
1652;BME280;823;49.028;8.454;2022-12-07T23:04:30;100197.28;;;5.37;61.82
1652;BME280;823;49.028;8.454;2022-12-07T23:09:30;100200.66;;;5.40;61.61
1652;BME280;823;49.028;8.454;2022-12-07T23:14:33;100198.94;;;5.39;61.66
1652;BME280;823;49.028;8.454;2022-12-07T23:19:34;100186.22;;;5.33;61.49
1652;BME280;823;49.028;8.454;2022-12-07T23:24:34;100178.63;;;5.27;61.61
1652;BME280;823;49.028;8.454;2022-12-07T23:29:34;100184.78;;;5.15;61.76
1652;BME280;823;49.028;8.454;2022-12-07T23:34:35;100182.13;;;5.20;61.98
1652;BME280;823;49.028;8.454;2022-12-07T23:39:35;100166.75;;;5.20;61.91
1652;BME280;823;49.028;8.454;2022-12-07T23:44:35;100165.09;;;5.17;61.86
1652;BME280;823;49.028;8.454;2022-12-07T23:49:36;100179.78;;;5.04;62.51
1652;BME280;823;49.028;8.454;2022-12-07T23:54:36;100161.91;;;5.00;62.72
1652;BME280;823;49.028;8.454;2022-12-07T23:59:37;100157.59;;;5.03;63.14
